Time;durP1;ratioP1;P1;durP2;ratioP2;P2;SDS_P1;SDS_P2;PMS_P1;PMS_P2;Temp;Humidity;BMP_temperature;BMP_pressure;BME280_temperature;BME280_humidity;BME280_pressure;Samples;Min_cycle;Max_cycle;Signal;HPM_P1;HPM_P2
2022/08/18 00:02:39;;;;;;;6.07;5.50;;;24.30;30.70;;;;;;10401969;28;20229;-79
2022/08/18 00:08:00;;;;;;;5.73;5.23;;;24.30;32.70;;;;;;10398351;28;20256;-80
2022/08/18 00:13:04;;;;;;;5.63;5.17;;;24.10;33.10;;;;;;10393877;28;20450;-79
2022/08/18 00:18:07;;;;;;;5.83;5.33;;;24.10;32.50;;;;;;10397661;28;20807;-79
2022/08/18 00:23:12;;;;;;;5.73;5.33;;;23.90;32.90;;;;;;10406979;28;20230;-80
2022/08/18 00:28:15;;;;;;;5.97;5.47;;;23.80;34.50;;;;;;10403535;28;20226;-80
2022/08/18 00:33:18;;;;;;;6.20;5.70;;;23.60;33.90;;;;;;10401445;28;20221;-79
2022/08/18 00:38:23;;;;;;;6.10;5.50;;;23.50;34.40;;;;;;10404326;28;20808;-79
2022/08/18 00:43:32;;;;;;;6.63;6.03;;;23.30;35.90;;;;;;10402988;28;20236;-79
2022/08/18 00:48:35;;;;;;;6.23;5.63;;;23.30;37.30;;;;;;10395313;28;20275;-79
2022/08/18 00:53:44;;;;;;;7.43;6.37;;;23.10;35.20;;;;;;10401711;28;20603;-79
2022/08/18 00:58:53;;;;;;;6.23;5.77;;;23.10;38.00;;;;;;10402729;28;20230;-79
2022/08/18 01:04:00;;;;;;;6.77;6.17;;;23.00;38.10;;;;;;10408742;28;20249;-79
2022/08/18 01:09:05;;;;;;;6.83;6.30;;;23.00;39.10;;;;;;10405786;28;20231;-80
2022/08/18 01:14:14;;;;;;;6.80;6.17;;;23.00;38.40;;;;;;10413320;28;20230;-80
2022/08/18 01:30:08;;;;;;;6.57;6.07;;;22.80;37.60;;;;;;10405001;28;20835;-79
2022/08/18 01:35:15;;;;;;;6.73;6.20;;;22.90;39.00;;;;;;10407208;28;20281;-80
2022/08/18 01:40:23;;;;;;;6.40;5.90;;;22.90;37.90;;;;;;10409962;28;20226;-80
2022/08/18 01:45:46;;;;;;;6.63;6.10;;;23.00;38.70;;;;;;10405343;28;20221;-80
2022/08/18 01:50:52;;;;;;;6.40;5.80;;;23.00;36.60;;;;;;10405586;28;20317;-80
2022/08/18 01:55:56;;;;;;;6.63;6.03;;;23.10;37.40;;;;;;10404820;28;20236;-80
2022/08/18 02:01:01;;;;;;;6.83;6.23;;;23.20;37.90;;;;;;10401311;28;20229;-80
2022/08/18 02:06:09;;;;;;;5.57;5.17;;;23.30;37.00;;;;;;10405078;28;20251;-80
2022/08/18 02:11:18;;;;;;;6.20;5.60;;;23.30;37.20;;;;;;10400147;28;20244;-79
2022/08/18 02:16:21;;;;;;;7.07;6.47;;;23.40;38.40;;;;;;10406914;28;20218;-80
2022/08/18 02:21:24;;;;;;;5.47;5.07;;;23.50;36.90;;;;;;10402101;28;21297;-80
2022/08/18 02:26:29;;;;;;;6.23;5.73;;;23.50;36.40;;;;;;10404872;28;20225;-79
2022/08/18 02:31:32;;;;;;;6.23;5.73;;;23.40;37.50;;;;;;10404923;28;20304;-80
2022/08/18 02:36:35;;;;;;;6.50;6.00;;;23.30;36.60;;;;;;10404252;28;20221;-79
2022/08/18 02:41:40;;;;;;;5.90;5.40;;;23.20;36.90;;;;;;10403710;28;20243;-80
2022/08/18 02:46:43;;;;;;;6.67;6.13;;;23.20;37.90;;;;;;10406789;28;20241;-80
2022/08/18 02:51:46;;;;;;;6.33;5.83;;;23.10;37.30;;;;;;10400371;28;20782;-79
2022/08/18 02:56:52;;;;;;;6.60;6.10;;;23.10;37.30;;;;;;10405897;28;20271;-79
2022/08/18 03:01:57;;;;;;;6.90;6.33;;;23.00;38.60;;;;;;10405746;28;20261;-79
2022/08/18 03:07:02;;;;;;;7.33;6.77;;;22.90;38.50;;;;;;10401644;28;20241;-79
2022/08/18 03:12:08;;;;;;;7.57;6.97;;;22.80;38.80;;;;;;10401794;28;21027;-79
2022/08/18 03:17:13;;;;;;;7.53;6.93;;;22.80;39.70;;;;;;10401159;28;20234;-79
2022/08/18 03:22:16;;;;;;;7.50;6.80;;;22.70;38.20;;;;;;10405249;28;20329;-80
2022/08/18 03:33:55;;;;;;;6.30;5.80;;;22.60;39.20;;;;;;10383009;28;20298;-79
2022/08/18 03:39:05;;;;;;;6.57;5.97;;;22.70;38.90;;;;;;10401134;28;20293;-79
2022/08/18 03:44:08;;;;;;;6.97;6.47;;;22.70;38.80;;;;;;10398654;28;20233;-79
2022/08/18 03:49:13;;;;;;;6.97;6.47;;;22.70;38.80;;;;;;10402040;28;20234;-79
2022/08/18 03:54:18;;;;;;;7.90;7.20;;;22.80;39.00;;;;;;10402584;28;20229;-79
2022/08/18 03:59:23;;;;;;;7.83;7.20;;;22.80;39.00;;;;;;10405667;28;20280;-79
2022/08/18 04:04:29;;;;;;;6.90;6.40;;;22.90;39.10;;;;;;10405405;28;20232;-80
2022/08/18 04:09:33;;;;;;;6.67;6.17;;;22.90;39.10;;;;;;10399949;28;20316;-79
2022/08/18 04:14:36;;;;;;;6.97;6.43;;;22.80;39.00;;;;;;10401652;28;20225;-79
2022/08/18 04:19:41;;;;;;;7.10;6.40;;;22.70;38.80;;;;;;10406105;28;20244;-79
2022/08/18 04:24:45;;;;;;;6.27;5.77;;;22.70;38.90;;;;;;10404037;28;20320;-79
2022/08/18 04:29:48;;;;;;;7.33;6.77;;;22.70;38.90;;;;;;10399733;28;20231;-80
2022/08/18 04:34:53;;;;;;;7.20;6.50;;;22.80;39.00;;;;;;10406234;28;20240;-79
2022/08/18 04:39:59;;;;;;;8.30;7.60;;;22.80;39.00;;;;;;10407004;28;20236;-80
2022/08/18 04:45:03;;;;;;;7.50;6.93;;;22.80;39.00;;;;;;10409989;28;20252;-79
2022/08/18 04:50:09;;;;;;;7.40;6.83;;;22.70;38.90;;;;;;10411403;28;20229;-80
2022/08/18 04:55:13;;;;;;;7.87;7.27;;;22.70;38.90;;;;;;10410635;28;20257;-80
2022/08/18 05:00:18;;;;;;;6.70;6.17;;;22.60;38.80;;;;;;10406351;28;20233;-79
2022/08/18 05:05:23;;;;;;;7.80;7.20;;;22.60;38.80;;;;;;10407281;28;20785;-79
2022/08/18 05:10:26;;;;;;;6.90;6.40;;;22.60;39.80;;;;;;10408567;28;20231;-80
2022/08/18 05:15:29;;;;;;;6.83;6.33;;;22.70;39.10;;;;;;10409413;28;20229;-79
2022/08/18 05:20:56;;;;;;;7.20;6.70;;;22.70;38.90;;;;;;10408371;28;20221;-79
2022/08/18 05:26:01;;;;;;;8.23;7.43;;;22.80;40.60;;;;;;10409906;28;20312;-79
2022/08/18 05:31:08;;;;;;;8.20;7.50;;;22.80;39.80;;;;;;10407563;28;20221;-79
2022/08/18 05:36:29;;;;;;;7.60;7.00;;;22.80;41.00;;;;;;10407113;28;20252;-80
2022/08/18 05:41:36;;;;;;;7.60;7.00;;;22.80;41.00;;;;;;10407784;28;20240;-80
2022/08/18 05:46:45;;;;;;;7.63;7.03;;;22.80;40.90;;;;;;10407215;28;21456;-80
2022/08/18 05:51:53;;;;;;;8.97;8.27;;;22.80;41.40;;;;;;10403967;28;20232;-80
2022/08/18 05:56:58;;;;;;;9.07;8.27;;;22.80;42.00;;;;;;10403625;28;20328;-80
2022/08/18 06:02:10;;;;;;;7.53;6.90;;;22.90;41.60;;;;;;10407323;28;20699;-79
2022/08/18 06:07:18;;;;;;;9.27;8.37;;;22.90;41.80;;;;;;10410213;28;20232;-80
2022/08/18 06:12:27;;;;;;;9.73;8.83;;;23.00;42.40;;;;;;10408967;28;20238;-80
2022/08/18 06:17:54;;;;;;;10.07;9.27;;;23.00;42.50;;;;;;10408955;28;20225;-80
2022/08/18 06:23:09;;;;;;;9.67;8.87;;;23.00;42.90;;;;;;10405667;28;20662;-80
2022/08/18 06:28:15;;;;;;;9.87;9.07;;;23.10;43.50;;;;;;10405498;28;20225;-80
2022/08/18 06:33:37;;;;;;;10.63;9.83;;;23.20;42.50;;;;;;10402021;28;20230;-79
2022/08/18 06:38:55;;;;;;;11.10;10.20;;;23.20;43.50;;;;;;10404262;28;20229;-80
2022/08/18 06:44:02;;;;;;;9.97;9.17;;;23.30;43.30;;;;;;10398871;28;20221;-80
2022/08/18 06:49:07;;;;;;;9.77;8.97;;;23.30;42.60;;;;;;10401245;28;20231;-79
2022/08/18 06:54:28;;;;;;;9.93;9.13;;;23.30;42.50;;;;;;10402342;28;20320;-79
2022/08/18 06:59:35;;;;;;;9.80;9.00;;;23.30;43.20;;;;;;10402360;28;20237;-79
2022/08/18 07:04:43;;;;;;;9.57;8.83;;;23.40;42.50;;;;;;10397117;28;20230;-79
2022/08/18 07:09:49;;;;;;;10.63;9.73;;;23.50;43.50;;;;;;10394019;28;20233;-79
2022/08/18 07:14:54;;;;;;;10.60;9.70;;;23.60;43.00;;;;;;10395102;28;20218;-79
2022/08/18 07:20:00;;;;;;;9.87;9.07;;;23.60;42.80;;;;;;10389604;28;20233;-80
2022/08/18 07:25:05;;;;;;;10.73;9.93;;;23.70;42.90;;;;;;10395652;28;20222;-79
2022/08/18 07:30:12;;;;;;;10.80;9.90;;;23.70;42.80;;;;;;10394055;28;20241;-78
2022/08/18 07:35:22;;;;;;;10.80;10.00;;;23.80;42.70;;;;;;10385769;28;20264;-79
2022/08/18 07:40:33;;;;;;;10.83;9.90;;;23.80;42.70;;;;;;10394007;28;20225;-79
2022/08/18 07:45:41;;;;;;;10.37;9.47;;;23.80;42.90;;;;;;10392866;28;20251;-79
2022/08/18 07:50:55;;;;;;;9.70;8.93;;;23.80;42.90;;;;;;10397815;28;20225;-79
2022/08/18 07:56:13;;;;;;;10.27;9.53;;;23.90;43.60;;;;;;10398299;28;20213;-79
2022/08/18 08:01:28;;;;;;;10.13;9.33;;;24.00;44.00;;;;;;10394815;28;20920;-79
2022/08/18 08:06:41;;;;;;;9.37;8.57;;;24.20;43.90;;;;;;10390042;28;20237;-79
2022/08/18 08:12:21;;;;;;;8.70;8.03;;;24.40;43.80;;;;;;10391144;28;20738;-80
2022/08/18 08:17:31;;;;;;;8.07;7.57;;;24.50;43.30;;;;;;10396242;28;20225;-80
2022/08/18 08:22:44;;;;;;;9.23;8.53;;;24.70;42.70;;;;;;10392706;28;20229;-79
2022/08/18 08:28:01;;;;;;;7.53;6.83;;;24.90;42.30;;;;;;10387845;28;20225;-79
2022/08/18 08:33:10;;;;;;;8.20;7.60;;;25.10;41.00;;;;;;10390165;28;20221;-81
2022/08/18 08:38:19;;;;;;;7.50;6.90;;;25.20;41.00;;;;;;10395611;28;20231;-82
2022/08/18 08:43:49;;;;;;;9.53;8.63;;;25.30;41.10;;;;;;10393718;28;20221;-80
2022/08/18 08:48:59;;;;;;;9.30;8.50;;;25.40;40.80;;;;;;10378602;28;20320;-82
2022/08/18 08:54:10;;;;;;;8.13;7.33;;;25.50;40.50;;;;;;10387455;28;20703;-80
2022/08/18 08:59:17;;;;;;;8.13;7.53;;;25.60;40.20;;;;;;10384639;28;20748;-79
2022/08/18 09:04:31;;;;;;;9.03;8.30;;;25.70;40.40;;;;;;10384957;28;20230;-79
2022/08/18 09:09:54;;;;;;;8.67;8.00;;;25.80;39.30;;;;;;10387449;28;21011;-78
2022/08/18 09:15:32;;;;;;;8.70;8.10;;;25.80;39.40;;;;;;10389211;28;20233;-78
2022/08/18 09:20:51;;;;;;;9.53;8.83;;;25.80;39.90;;;;;;10353340;28;20222;-78
2022/08/18 09:25:59;;;;;;;10.43;9.40;;;25.90;39.80;;;;;;10397585;28;20225;-78
2022/08/18 09:31:18;;;;;;;10.30;9.50;;;26.00;39.70;;;;;;10401865;28;20222;-77
2022/08/18 09:36:34;;;;;;;9.83;9.03;;;26.10;39.60;;;;;;10398381;28;20244;-79
2022/08/18 09:41:46;;;;;;;10.57;9.77;;;26.20;40.00;;;;;;10396555;28;20229;-78
2022/08/18 09:46:56;;;;;;;9.73;8.90;;;26.40;38.90;;;;;;10392244;28;20300;-77
2022/08/18 09:52:01;;;;;;;11.67;10.67;;;26.50;39.10;;;;;;10397145;28;20316;-77
2022/08/18 09:57:17;;;;;;;9.90;9.10;;;26.60;38.80;;;;;;10394868;28;20226;-78
2022/08/18 10:02:55;;;;;;;8.77;8.07;;;26.80;38.70;;;;;;10400750;28;20251;-78
2022/08/18 10:08:32;;;;;;;9.20;8.53;;;27.00;38.90;;;;;;10399521;28;20244;-78
2022/08/18 10:13:47;;;;;;;9.17;8.47;;;27.20;37.90;;;;;;10392116;28;21139;-78
2022/08/18 10:19:01;;;;;;;9.87;9.10;;;27.50;38.30;;;;;;10403971;28;20835;-79
2022/08/18 10:24:18;;;;;;;10.77;9.97;;;27.70;37.40;;;;;;10406498;28;20598;-78
2022/08/18 10:30:01;;;;;;;10.00;9.03;;;27.80;36.40;;;;;;10406359;28;20233;-78
2022/08/18 10:35:31;;;;;;;11.00;10.10;;;27.90;35.80;;;;;;10409119;28;20834;-78
2022/08/18 10:40:35;;;;;;;11.77;10.67;;;28.00;35.90;;;;;;10399989;28;20300;-78
2022/08/18 10:45:46;;;;;;;11.03;10.13;;;28.00;36.10;;;;;;10401557;28;20486;-78
2022/08/18 10:51:18;;;;;;;10.77;9.90;;;28.00;36.50;;;;;;10403106;28;20229;-78
2022/08/18 10:56:32;;;;;;;9.40;8.70;;;28.00;35.70;;;;;;10410713;28;20229;-79
2022/08/18 11:01:52;;;;;;;8.40;7.77;;;28.10;35.00;;;;;;10408973;28;20802;-79
2022/08/18 11:07:06;;;;;;;8.57;7.97;;;28.20;35.30;;;;;;10403748;28;20230;-79
2022/08/18 11:12:13;;;;;;;8.10;7.50;;;28.40;35.00;;;;;;10408373;28;20855;-79
2022/08/18 11:17:33;;;;;;;8.03;7.50;;;28.50;34.80;;;;;;10398369;28;20317;-79
2022/08/18 11:22:37;;;;;;;7.43;6.80;;;28.70;34.30;;;;;;10393995;28;20272;-79
2022/08/18 11:27:46;;;;;;;7.40;6.87;;;28.80;34.70;;;;;;10400983;28;20247;-79
2022/08/18 11:32:53;;;;;;;6.80;6.30;;;29.00;34.00;;;;;;10397252;28;20699;-79
2022/08/18 11:37:59;;;;;;;7.50;7.00;;;29.10;33.60;;;;;;10400729;28;20775;-79
2022/08/18 11:43:06;;;;;;;7.17;6.67;;;29.30;33.30;;;;;;10401588;28;20225;-76
2022/08/18 11:48:20;;;;;;;7.10;6.60;;;29.40;33.00;;;;;;10397346;28;20228;-77
2022/08/18 11:53:51;;;;;;;7.57;6.90;;;29.50;31.20;;;;;;10399169;28;20229;-78
2022/08/18 11:59:31;;;;;;;7.10;6.63;;;29.50;31.20;;;;;;10395163;28;20226;-77
2022/08/18 12:05:02;;;;;;;7.90;7.30;;;29.50;31.60;;;;;;10392648;28;20225;-79
2022/08/18 12:10:28;;;;;;;6.60;6.10;;;29.50;31.30;;;;;;10382636;28;20232;-77
2022/08/18 12:15:36;;;;;;;6.30;5.80;;;29.50;32.20;;;;;;10391692;28;20225;-78
2022/08/18 12:20:50;;;;;;;6.53;5.93;;;29.60;31.60;;;;;;10401880;28;20224;-79
2022/08/18 12:25:54;;;;;;;7.07;6.37;;;29.80;31.40;;;;;;10405311;28;20231;-78
2022/08/18 12:30:57;;;;;;;6.57;6.17;;;29.90;31.50;;;;;;10402824;28;20717;-80
2022/08/18 12:36:02;;;;;;;6.10;5.70;;;30.00;31.50;;;;;;10410495;28;20276;-81
2022/08/18 12:41:10;;;;;;;6.33;5.83;;;30.10;31.60;;;;;;10393579;28;20222;-78
2022/08/18 12:46:14;;;;;;;5.80;5.40;;;30.20;31.20;;;;;;10404316;28;20249;-81
2022/08/18 12:51:19;;;;;;;5.43;5.03;;;30.30;30.80;;;;;;10406553;28;20234;-79
2022/08/18 12:56:30;;;;;;;5.37;4.97;;;30.30;30.00;;;;;;10419794;28;20236;-79
2022/08/18 13:01:35;;;;;;;5.17;4.80;;;30.40;30.00;;;;;;10414702;28;20237;-79
2022/08/18 13:06:44;;;;;;;5.53;5.13;;;30.60;29.90;;;;;;10409185;28;20230;-80
2022/08/18 13:12:05;;;;;;;5.50;5.00;;;30.60;28.60;;;;;;10412520;28;20229;-81
2022/08/18 13:17:15;;;;;;;5.10;4.63;;;30.70;29.60;;;;;;10419365;28;20229;-80
2022/08/18 13:22:39;;;;;;;4.73;4.43;;;30.70;29.10;;;;;;10424831;28;20235;-81
2022/08/18 13:27:42;;;;;;;4.80;4.50;;;30.70;28.60;;;;;;10414154;28;20313;-78
2022/08/18 13:32:55;;;;;;;4.27;4.07;;;30.70;28.70;;;;;;10409339;28;20237;-79
2022/08/18 13:38:09;;;;;;;4.67;4.37;;;30.80;28.50;;;;;;10399469;28;20683;-79
2022/08/18 13:43:29;;;;;;;5.40;4.73;;;30.90;28.00;;;;;;10409503;28;20222;-81
2022/08/18 13:48:33;;;;;;;5.20;4.90;;;31.00;27.80;;;;;;10404487;28;20236;-78
2022/08/18 13:53:39;;;;;;;5.87;4.97;;;31.00;28.40;;;;;;10400770;28;20236;-79
2022/08/18 13:59:03;;;;;;;5.67;5.27;;;31.10;27.60;;;;;;10398135;28;20233;-78
2022/08/18 14:04:11;;;;;;;5.63;5.33;;;31.10;28.10;;;;;;10398597;28;20230;-79
2022/08/18 14:09:23;;;;;;;6.20;5.80;;;31.10;28.00;;;;;;10401953;28;20317;-79
2022/08/18 14:14:39;;;;;;;5.83;5.40;;;31.10;27.40;;;;;;10396029;28;20225;-79
2022/08/18 14:30:28;;;;;;;6.70;6.20;;;31.10;27.50;;;;;;10394924;28;20229;-78
2022/08/18 14:35:31;;;;;;;6.50;5.90;;;31.10;27.80;;;;;;10394516;28;20712;-79
2022/08/18 14:40:56;;;;;;;6.37;5.97;;;31.10;27.70;;;;;;10393433;28;20230;-78
2022/08/18 14:46:00;;;;;;;7.20;6.70;;;31.20;27.40;;;;;;10393579;28;20229;-78
2022/08/18 14:51:05;;;;;;;6.37;5.77;;;31.20;27.60;;;;;;10391978;28;20252;-80
2022/08/18 14:56:13;;;;;;;6.13;5.70;;;31.20;27.60;;;;;;10399261;28;20442;-80
2022/08/18 15:01:19;;;;;;;6.27;5.80;;;31.30;27.40;;;;;;10393814;28;20309;-80
2022/08/18 15:06:24;;;;;;;6.60;6.03;;;31.30;27.30;;;;;;10393866;28;20598;-80
2022/08/18 15:11:32;;;;;;;6.23;5.73;;;31.30;26.90;;;;;;10395224;28;20236;-80
2022/08/18 15:16:36;;;;;;;6.00;5.60;;;31.30;26.50;;;;;;10394956;28;20225;-79
2022/08/18 15:27:05;;;;;;;6.10;5.70;;;31.30;26.60;;;;;;10389195;28;20221;-79
2022/08/18 15:32:21;;;;;;;6.10;5.60;;;31.30;26.20;;;;;;10387407;28;20241;-80
2022/08/18 15:37:26;;;;;;;5.87;5.47;;;31.30;26.60;;;;;;10387947;28;20229;-80
2022/08/18 15:42:31;;;;;;;5.87;5.30;;;31.20;26.40;;;;;;10382507;28;20240;-80
2022/08/18 15:47:35;;;;;;;5.47;5.17;;;31.20;26.30;;;;;;10381691;28;20233;-80
2022/08/18 15:52:48;;;;;;;7.17;6.47;;;31.10;27.10;;;;;;10392141;28;20287;-81
2022/08/18 15:57:54;;;;;;;6.07;5.67;;;31.00;26.30;;;;;;10392355;28;20253;-80
2022/08/18 16:03:03;;;;;;;6.40;5.90;;;30.90;26.10;;;;;;10389268;28;20313;-79
2022/08/18 16:08:11;;;;;;;6.80;6.20;;;30.90;26.50;;;;;;10382379;28;20231;-79
2022/08/18 16:13:15;;;;;;;5.77;5.37;;;30.70;26.80;;;;;;10386424;28;20233;-79
2022/08/18 16:18:20;;;;;;;6.17;5.63;;;30.70;26.70;;;;;;10387544;28;20773;-79
2022/08/18 16:23:24;;;;;;;7.20;5.73;;;30.60;26.80;;;;;;10388190;28;20230;-79
2022/08/18 16:28:28;;;;;;;6.73;6.23;;;30.70;27.00;;;;;;10387647;28;20229;-79
2022/08/18 16:33:37;;;;;;;6.13;5.67;;;30.60;26.90;;;;;;10380718;28;20942;-79
2022/08/18 16:38:42;;;;;;;6.50;6.10;;;30.60;27.20;;;;;;10388643;28;20229;-79
2022/08/18 16:43:50;;;;;;;6.40;6.00;;;30.50;27.20;;;;;;10386368;28;20249;-79
2022/08/18 16:48:54;;;;;;;7.67;6.13;;;30.50;27.30;;;;;;10385000;28;20233;-79
2022/08/18 16:53:58;;;;;;;6.93;6.33;;;30.50;27.40;;;;;;10386457;28;20774;-79
2022/08/18 17:04:27;;;;;;;6.53;6.03;;;30.50;27.30;;;;;;10388507;28;20744;-79
2022/08/18 17:09:31;;;;;;;5.67;5.27;;;30.40;27.40;;;;;;10387351;28;20280;-78
2022/08/18 17:14:37;;;;;;;6.00;5.60;;;30.30;27.50;;;;;;10391894;28;20225;-79
2022/08/18 17:19:40;;;;;;;6.00;5.60;;;30.30;27.70;;;;;;10390080;28;20236;-78
2022/08/18 17:24:45;;;;;;;5.80;5.37;;;30.10;27.40;;;;;;10388446;28;20230;-78
2022/08/18 17:29:59;;;;;;;6.10;5.70;;;30.10;27.40;;;;;;10388148;28;20226;-78
2022/08/18 17:35:07;;;;;;;6.40;5.90;;;30.00;27.60;;;;;;10387374;28;20225;-78
2022/08/18 17:40:16;;;;;;;6.57;6.10;;;29.90;27.80;;;;;;10391217;28;20252;-78
2022/08/18 17:45:21;;;;;;;6.90;6.40;;;29.70;27.90;;;;;;10399004;28;20600;-78
2022/08/18 17:55:58;;;;;;;6.43;5.93;;;29.50;28.20;;;;;;10402725;28;20621;-78
2022/08/18 18:01:03;;;;;;;6.57;6.07;;;29.50;28.60;;;;;;10393158;28;20606;-78
2022/08/18 18:06:09;;;;;;;6.20;5.70;;;29.40;28.60;;;;;;10399433;28;20952;-78
2022/08/18 18:11:13;;;;;;;6.13;5.63;;;29.30;29.10;;;;;;10402551;28;20226;-79
2022/08/18 18:16:27;;;;;;;6.77;6.27;;;29.10;29.10;;;;;;10412081;28;20232;-80
2022/08/18 18:21:33;;;;;;;7.27;6.67;;;29.00;30.70;;;;;;10411242;28;20328;-82
2022/08/18 18:26:57;;;;;;;7.63;7.03;;;28.90;29.80;;;;;;10414605;28;20312;-82
2022/08/18 18:32:09;;;;;;;7.00;6.50;;;28.80;29.70;;;;;;10414512;28;20232;-80
2022/08/18 18:37:25;;;;;;;7.57;6.97;;;28.50;30.50;;;;;;10421921;28;20763;-80
2022/08/18 18:42:30;;;;;;;7.43;6.87;;;28.20;30.30;;;;;;10422991;28;20302;-80
2022/08/18 18:47:49;;;;;;;7.47;6.87;;;28.00;30.20;;;;;;10418560;28;20217;-80
2022/08/18 18:53:04;;;;;;;7.80;7.10;;;27.90;30.70;;;;;;10420459;28;20228;-81
2022/08/18 18:58:25;;;;;;;7.37;6.77;;;27.80;30.70;;;;;;10416758;28;20245;-80
2022/08/18 19:03:36;;;;;;;7.20;6.70;;;27.60;31.10;;;;;;10412904;28;20287;-82
2022/08/18 19:08:48;;;;;;;8.43;7.83;;;27.40;32.00;;;;;;10410458;28;20604;-82
2022/08/18 19:13:59;;;;;;;8.93;8.03;;;27.20;32.60;;;;;;10409084;28;20283;-81
2022/08/18 19:19:15;;;;;;;8.60;8.00;;;27.00;32.60;;;;;;10404364;28;20309;-81
2022/08/18 19:24:50;;;;;;;7.90;7.20;;;26.80;33.60;;;;;;10401481;28;20229;-80
2022/08/18 19:30:00;;;;;;;7.90;7.30;;;26.50;34.20;;;;;;10404959;28;20228;-80
2022/08/18 19:35:08;;;;;;;8.50;7.80;;;26.30;34.40;;;;;;10404541;28;20312;-79
2022/08/18 19:40:20;;;;;;;8.23;7.53;;;26.20;34.70;;;;;;10403599;28;20225;-80
2022/08/18 19:45:31;;;;;;;8.50;7.80;;;26.10;35.40;;;;;;10400844;28;20225;-79
2022/08/18 19:50:43;;;;;;;8.20;7.60;;;26.00;35.10;;;;;;10404249;28;20287;-79
2022/08/18 19:56:11;;;;;;;7.37;6.87;;;25.80;35.40;;;;;;10406683;28;20225;-79
2022/08/18 20:01:24;;;;;;;7.93;7.20;;;25.70;35.20;;;;;;10386275;28;20660;-78
2022/08/18 20:06:48;;;;;;;7.53;7.03;;;25.70;35.80;;;;;;10391754;28;20791;-78
2022/08/18 20:12:08;;;;;;;7.27;6.77;;;25.60;35.70;;;;;;10390965;28;20218;-78
2022/08/18 20:17:17;;;;;;;7.53;6.97;;;25.60;35.70;;;;;;10387503;28;20875;-78
2022/08/18 20:22:38;;;;;;;8.37;7.60;;;25.60;36.80;;;;;;10392836;28;20738;-77
2022/08/18 20:27:43;;;;;;;7.93;7.33;;;25.50;36.30;;;;;;10393182;28;20231;-76
2022/08/18 20:33:16;;;;;;;8.40;7.80;;;25.40;36.00;;;;;;10393298;28;20239;-79
2022/08/18 20:38:33;;;;;;;8.47;7.80;;;25.20;36.80;;;;;;10398338;28;20256;-78
2022/08/18 20:43:39;;;;;;;9.60;8.80;;;25.10;37.70;;;;;;10396669;28;20854;-79
2022/08/18 20:49:04;;;;;;;8.80;8.10;;;25.00;37.20;;;;;;10393818;28;20235;-78
2022/08/18 20:54:23;;;;;;;10.80;9.43;;;24.90;39.10;;;;;;10401907;28;20225;-79
2022/08/18 20:59:32;;;;;;;9.87;9.07;;;24.70;39.40;;;;;;10401094;28;20237;-79
2022/08/18 21:04:48;;;;;;;10.17;9.10;;;24.50;39.40;;;;;;10402057;28;20597;-81
2022/08/18 21:10:02;;;;;;;10.23;9.33;;;24.40;39.70;;;;;;10404713;28;20253;-81
2022/08/18 21:15:15;;;;;;;10.33;9.43;;;24.20;40.20;;;;;;10407980;28;20249;-79
2022/08/18 21:20:23;;;;;;;10.57;9.67;;;24.00;39.10;;;;;;10412548;28;20321;-80
2022/08/18 21:25:28;;;;;;;10.67;9.67;;;23.90;39.60;;;;;;10409004;28;20233;-81
2022/08/18 21:30:31;;;;;;;10.50;9.57;;;23.80;40.10;;;;;;10413964;28;20711;-80
2022/08/18 21:35:38;;;;;;;10.23;9.33;;;23.80;40.50;;;;;;10411819;28;20230;-81
2022/08/18 21:40:46;;;;;;;9.83;9.03;;;23.90;41.50;;;;;;10414314;28;20797;-80
2022/08/18 21:45:53;;;;;;;10.27;9.47;;;23.90;41.70;;;;;;10409428;28;20308;-79
2022/08/18 21:51:00;;;;;;;9.97;9.17;;;24.00;40.10;;;;;;10418733;28;20226;-80
2022/08/18 21:56:07;;;;;;;9.33;8.63;;;24.00;40.00;;;;;;10409472;28;20236;-79
2022/08/18 22:01:20;;;;;;;10.50;9.60;;;23.90;40.30;;;;;;10410204;28;20645;-80
2022/08/18 22:06:34;;;;;;;10.03;9.23;;;23.80;41.70;;;;;;10409319;28;20667;-79
2022/08/18 22:17:23;;;;;;;10.00;9.20;;;23.70;41.00;;;;;;10417128;28;20596;-79
2022/08/18 22:27:56;;;;;;;10.10;9.20;;;23.60;42.00;;;;;;10410190;28;20745;-80
2022/08/18 22:32:59;;;;;;;11.00;10.00;;;23.70;41.50;;;;;;10411921;28;20232;-80
2022/08/18 22:38:03;;;;;;;9.93;9.07;;;23.70;40.70;;;;;;10415024;28;20650;-79
2022/08/18 22:43:07;;;;;;;10.67;9.67;;;23.70;40.90;;;;;;10411327;28;20230;-80
2022/08/18 22:48:10;;;;;;;11.77;10.77;;;23.60;42.00;;;;;;10410246;28;20225;-79
2022/08/18 22:53:14;;;;;;;11.37;10.47;;;23.60;41.10;;;;;;10403746;28;20238;-79
2022/08/18 22:58:19;;;;;;;11.43;10.63;;;23.50;41.70;;;;;;10409618;28;21231;-79
2022/08/18 23:03:30;;;;;;;12.63;11.63;;;23.50;42.60;;;;;;10413923;28;20761;-79
2022/08/18 23:08:38;;;;;;;13.47;12.30;;;23.40;42.10;;;;;;10404578;28;20723;-79
2022/08/18 23:14:00;;;;;;;14.43;13.23;;;23.40;42.10;;;;;;10406317;28;20770;-79
2022/08/18 23:19:04;;;;;;;15.23;14.03;;;23.50;43.70;;;;;;10390009;28;20229;-79
2022/08/18 23:24:10;;;;;;;14.67;13.47;;;23.40;42.40;;;;;;10403688;28;20699;-79
2022/08/18 23:29:15;;;;;;;15.77;14.47;;;23.40;43.40;;;;;;10393181;28;20235;-78
2022/08/18 23:34:22;;;;;;;15.03;13.83;;;23.30;43.70;;;;;;10403230;28;20237;-79
2022/08/18 23:39:26;;;;;;;14.53;13.40;;;23.30;43.80;;;;;;10406768;28;20239;-78
2022/08/18 23:44:31;;;;;;;15.63;14.33;;;23.30;43.00;;;;;;10399557;28;20228;-79
2022/08/18 23:49:35;;;;;;;15.30;14.10;;;23.30;44.20;;;;;;10396833;28;20233;-78
2022/08/18 23:54:38;;;;;;;14.10;12.90;;;23.20;43.30;;;;;;10402748;28;20616;-78
2022/08/18 23:59:43;;;;;;;14.43;13.23;;;23.30;43.40;;;;;;10403457;28;20234;-78
